Time;durP1;ratioP1;P1;durP2;ratioP2;P2;SDS_P1;SDS_P2;PMS_P1;PMS_P2;Temp;Humidity;BMP_temperature;BMP_pressure;BME280_temperature;BME280_humidity;BME280_pressure;Samples;Min_cycle;Max_cycle;Signal;HPM_P1;HPM_P2
2021/11/09 15:29:14;;;;;;;12.97;2.10;;;;;;;;;;5087649;28;20535;-75
2021/11/09 15:31:59;;;;;;;8.13;1.83;;;;;;;;;;5056992;28;20388;-75
2021/11/09 15:39:59;;;;;;;25.87;1.20;;;;;;;;;;5059794;28;20416;-79
2021/11/09 15:42:42;;;;;;;4.17;1.30;;;10.70;1.00;;;;;;5066156;28;21083;-74
2021/11/09 15:45:09;;;;;;;9.67;2.17;;;;;;;;;;5059372;28;20406;-74
2021/11/09 15:50:12;;;;;;;38.77;3.10;;;;;;;;;;5162154;22;20556;-77
2021/11/09 15:52:38;;;;;;;18.97;2.83;;;;;;;;;;5021035;28;20427;-75
2021/11/09 15:55:05;;;;;;;9.10;2.00;;;;;;;;;;5032809;28;20823;-76
2021/11/09 15:57:31;;;;;;;17.13;2.67;;;;;;;;;;5029160;28;20753;-76
2021/11/09 15:59:57;;;;;;;4.83;1.60;;;;;;;;;;5027846;28;20415;-76
2021/11/09 16:02:25;;;;;;;5.97;1.70;;;8.70;1.00;;;;;;5029715;28;20423;-76
2021/11/09 16:04:53;;;;;;;14.93;2.20;;;;;;;;;;5029594;28;20435;-76
2021/11/09 16:07:23;;;;;;;15.20;2.30;;;;;;;;;;5029031;28;20462;-75
2021/11/09 16:09:52;;;;;;;22.50;3.37;;;;;;;;;;5027378;28;20518;-75
2021/11/09 16:12:20;;;;;;;7.57;2.03;;;;;;;;;;5014281;28;20439;-75
2021/11/09 16:14:47;;;;;;;6.00;1.83;;;;;;;;;;5025233;28;20769;-76
2021/11/09 16:17:13;;;;;;;24.20;3.53;;;;;;;;;;5028741;28;20473;-75
2021/11/09 16:19:40;;;;;;;5.23;1.70;;;;;;;;;;5018349;28;20400;-74
2021/11/09 16:22:09;;;;;;;6.33;2.00;;;;;;;;;;5027858;28;20473;-75
2021/11/09 16:24:35;;;;;;;13.23;3.13;;;;;;;;;;5028785;28;20905;-74
2021/11/09 16:27:01;;;;;;;18.80;3.63;;;;;;;;;;5028900;28;20450;-81
2021/11/09 16:29:46;;;;;;;18.03;3.30;;;;;;;;;;5027889;28;20412;-75
2021/11/09 16:32:14;;;;;;;10.63;3.00;;;;;;;;;;5022770;28;20465;-78
2021/11/09 16:34:43;;;;;;;20.70;3.70;;;;;;;;;;5028960;28;20510;-75
2021/11/09 16:37:09;;;;;;;8.70;3.00;;;;;;;;;;5029005;28;20807;-76
2021/11/09 16:42:01;;;;;;;6.43;2.20;;;;;;;;;;5009304;28;20431;-76
2021/11/09 16:44:27;;;;;;;5.47;1.77;;;;;;;;;;5014796;28;20412;-75
2021/11/09 16:46:57;;;;;;;5.30;1.83;;;;;;;;;;5012143;28;20575;-75
2021/11/09 16:49:44;;;;;;;6.00;1.73;;;;;;;;;;5012741;28;20547;-75
2021/11/09 16:52:14;;;;;;;15.90;2.73;;;;;;;;;;5013252;28;20420;-77
2021/11/09 16:57:40;;;;;;;6.20;1.70;;;;;;;;;;5015097;28;20438;-75
2021/11/09 17:00:42;;;;;;;11.40;2.30;;;;;;;;;;5015356;28;20788;-75
2021/11/09 18:21:28;;;;;;;12.50;3.60;;;;;;;;;;5008896;28;20275;-76
2021/11/09 18:23:58;;;;;;;4.13;2.37;;;;;;;;;;5014917;28;20620;-76
2021/11/09 18:26:24;;;;;;;12.55;2.97;;;;;;;;;;5006563;28;20428;-76
2021/11/09 18:28:51;;;;;;;7.28;2.95;;;;;;;;;;5009057;28;20769;-74
2021/11/09 18:31:22;;;;;;;14.55;3.30;;;;;;;;;;4996118;28;20241;-75
2021/11/09 18:33:48;;;;;;;15.13;3.05;;;;;;;;;;5010311;28;20188;-75
2021/11/09 18:36:15;;;;;;;12.73;3.03;;;;;;;;;;5009907;28;20171;-75
2021/11/09 18:38:46;;;;;;;6.18;2.30;;;;;;;;;;5014410;28;20446;-77
2021/11/09 18:41:16;;;;;;;5.97;2.50;;;;;;;;;;5014011;28;20191;-76
2021/11/09 18:43:43;;;;;;;8.43;2.40;;;;;;;;;;5014076;28;20165;-76
2021/11/09 18:46:12;;;;;;;4.75;2.20;;;;;;;;;;5014487;28;20412;-77
2021/11/09 18:48:39;;;;;;;7.47;2.47;;;;;;;;;;5014003;28;20299;-75
2021/11/09 18:51:05;;;;;;;11.73;3.22;;;;;;;;;;5013369;28;20698;-75
2021/11/09 18:53:31;;;;;;;14.48;3.20;;;;;;;;;;5013766;28;20639;-73
2021/11/09 18:55:57;;;;;;;13.38;2.92;;;;;;;;;;5013262;28;20204;-78
2021/11/09 18:58:34;;;;;;;16.40;2.20;;;;;;;;;;5011763;28;20303;-75
2021/11/09 19:01:00;;;;;;;6.38;2.35;;;;;;;;;;5001873;28;20192;-74
2021/11/09 19:03:27;;;;;;;7.18;2.45;;;;;;;;;;5013763;28;20188;-74
2021/11/09 19:05:53;;;;;;;8.88;3.00;;;;;;;;;;5012793;28;20558;-76
2021/11/09 19:08:19;;;;;;;13.20;2.55;;;;;;;;;;5013989;28;20173;-76
2021/11/09 19:10:45;;;;;;;9.80;2.30;;;;;;;;;;5013453;28;20165;-76
2021/11/09 19:13:12;;;;;;;10.55;2.78;;;;;;;;;;5012313;28;20271;-76
2021/11/09 19:15:38;;;;;;;15.00;2.70;;;;;;;;;;5013417;28;20169;-75
2021/11/09 19:18:04;;;;;;;8.82;2.78;;;;;;;;;;5013573;28;20744;-75
2021/11/09 19:20:30;;;;;;;8.38;2.85;;;;;;;;;;5013044;28;20207;-74
2021/11/09 19:22:58;;;;;;;9.73;2.78;;;;;;;;;;5013463;28;20296;-74
2021/11/09 19:25:24;;;;;;;22.20;4.10;;;;;;;;;;5012884;28;20169;-73
2021/11/09 19:27:51;;;;;;;5.85;2.28;;;;;;;;;;5009120;28;20197;-74
2021/11/09 19:30:24;;;;;;;7.78;3.17;;;;;;;;;;5011663;28;20697;-74
2021/11/09 19:32:51;;;;;;;10.38;2.88;;;3.80;1.00;;;;;;5012106;28;20267;-73
2021/11/09 19:35:18;;;;;;;36.63;4.75;;;;;;;;;;5008854;28;20188;-73
2021/11/09 19:37:44;;;;;;;34.00;4.28;;;;;;;;;;5013096;28;20201;-75
2021/11/09 19:40:16;;;;;;;5.70;2.33;;;;;;;;;;5013449;28;20575;-75
2021/11/09 19:42:43;;;;;;;9.35;2.90;;;;;;;;;;5013096;28;20169;-74
2021/11/09 19:45:20;;;;;;;7.85;2.65;;;;;;;;;;5013180;28;20561;-74
2021/11/09 19:47:49;;;;;;;8.05;2.80;;;3.70;1.00;;;;;;5012317;28;20187;-74
2021/11/09 19:50:18;;;;;;;8.15;2.63;;;3.60;1.00;;;;;;5013368;28;20663;-74
2021/11/09 19:52:51;;;;;;;7.15;2.80;;;;;;;;;;5013095;28;20181;-74
2021/11/09 19:55:19;;;;;;;9.85;3.20;;;;;;;;;;5022199;28;20641;-74
2021/11/09 19:57:45;;;;;;;24.35;3.55;;;;;;;;;;5014305;28;20196;-76
2021/11/09 20:00:12;;;;;;;7.97;2.60;;;;;;;;;;5011218;28;20195;-75
2021/11/09 20:02:42;;;;;;;14.13;2.92;;;3.60;1.00;;;;;;5011368;28;20188;-73
2021/11/09 20:05:10;;;;;;;12.32;3.33;;;;;;;;;;5012685;28;20181;-72
2021/11/09 20:07:39;;;;;;;8.90;3.15;;;3.50;1.00;;;;;;5003030;28;20173;-73
2021/11/09 20:10:05;;;;;;;10.38;3.40;;;;;;;;;;5012487;28;20593;-75
2021/11/09 20:12:34;;;;;;;13.73;4.00;;;;;;;;;;5012911;28;20177;-74
2021/11/09 20:15:05;;;;;;;22.30;3.70;;;;;;;;;;5015441;28;20515;-74
2021/11/09 20:17:31;;;;;;;8.68;3.00;;;;;;;;;;5016631;28;20196;-75
2021/11/09 20:19:57;;;;;;;14.65;4.13;;;;;;;;;;5016725;28;20204;-72
2021/11/09 20:22:25;;;;;;;7.93;3.40;;;;;;;;;;5017375;28;20161;-74
2021/11/09 20:24:52;;;;;;;9.25;3.30;;;;;;;;;;5016686;28;20180;-74
2021/11/09 20:27:22;;;;;;;7.20;3.42;;;;;;;;;;5017060;28;20215;-77
2021/11/09 20:29:50;;;;;;;7.80;3.17;;;3.20;1.00;;;;;;5016990;28;20165;-74
2021/11/09 20:32:16;;;;;;;8.82;3.70;;;;;;;;;;5016716;28;20200;-74
2021/11/09 20:34:42;;;;;;;16.15;4.38;;;;;;;;;;5016306;28;20215;-74
2021/11/09 20:37:08;;;;;;;14.93;5.38;;;;;;;;;;5016922;28;20193;-74
2021/11/09 20:39:34;;;;;;;18.38;5.18;;;;;;;;;;5016249;28;20173;-74
2021/11/09 20:42:00;;;;;;;12.23;4.00;;;;;;;;;;5016478;28;20249;-74
2021/11/09 20:44:28;;;;;;;8.38;4.05;;;;;;;;;;5015744;28;20189;-74
2021/11/09 20:46:54;;;;;;;6.28;3.42;;;;;;;;;;5016554;28;20647;-74
2021/11/09 20:49:22;;;;;;;7.65;4.10;;;;;;;;;;5014445;28;20203;-74
2021/11/09 20:51:48;;;;;;;8.18;3.83;;;;;;;;;;5016829;28;20184;-73
2021/11/09 20:54:14;;;;;;;7.57;3.72;;;;;;;;;;5016118;28;20532;-74
2021/11/09 20:56:43;;;;;;;9.43;4.13;;;;;;;;;;5025896;28;20169;-74
2021/11/09 20:59:09;;;;;;;16.05;4.90;;;;;;;;;;5012915;28;20177;-74
2021/11/09 21:01:40;;;;;;;9.90;4.70;;;;;;;;;;5011240;28;20601;-74
2021/11/09 21:04:06;;;;;;;12.48;4.18;;;;;;;;;;5008338;28;20574;-74
2021/11/09 21:06:32;;;;;;;8.05;3.80;;;;;;;;;;5012064;28;20635;-74
2021/11/09 21:09:00;;;;;;;9.68;3.80;;;;;;;;;;5010045;28;20264;-74
2021/11/09 21:11:26;;;;;;;15.57;4.40;;;;;;;;;;5006663;28;20652;-74
2021/11/09 21:14:12;;;;;;;9.75;3.95;;;;;;;;;;5015078;28;20195;-74
2021/11/09 21:19:25;;;;;;;8.82;3.22;;;;;;;;;;5015257;28;20263;-74
2021/11/09 21:21:51;;;;;;;5.97;3.15;;;;;;;;;;5013418;28;20239;-74
2021/11/09 21:24:18;;;;;;;9.02;3.42;;;;;;;;;;5014570;28;20169;-74
2021/11/09 21:26:46;;;;;;;17.42;3.20;;;;;;;;;;5014516;28;20561;-74
2021/11/09 21:29:36;;;;;;;6.40;2.92;;;;;;;;;;5015578;28;20176;-74
2021/11/09 21:35:13;;;;;;;15.82;4.00;;;;;;;;;;4975777;28;20190;-74
2021/11/09 21:37:48;;;;;;;6.82;3.60;;;2.70;1.00;;;;;;4974669;28;20213;-74
2021/11/09 21:40:21;;;;;;;8.02;3.58;;;2.70;1.00;;;;;;4974074;28;20268;-74
2021/11/09 21:43:03;;;;;;;6.15;3.65;;;2.70;1.00;;;;;;4957557;28;20175;-74
2021/11/09 21:45:35;;;;;;;10.05;4.93;;;2.60;1.00;;;;;;4973762;28;20309;-74
2021/11/09 21:48:02;;;;;;;10.85;4.50;;;;;;;;;;4974082;28;20229;-74
2021/11/09 21:50:37;;;;;;;8.73;4.60;;;;;;;;;;4973997;28;20201;-74
2021/11/09 21:53:04;;;;;;;9.38;4.38;;;;;;;;;;4961445;28;20193;-74
2021/11/09 21:55:31;;;;;;;8.13;3.60;;;;;;;;;;4973572;28;20194;-74
2021/11/09 21:57:57;;;;;;;9.77;4.13;;;;;;;;;;4974048;28;20202;-74
2021/11/09 22:00:24;;;;;;;11.55;3.50;;;;;;;;;;4970797;28;20528;-74
2021/11/09 22:02:58;;;;;;;10.98;4.47;;;;;;;;;;4986573;28;20258;-74
2021/11/09 22:05:24;;;;;;;10.65;3.70;;;;;;;;;;4977617;28;20194;-74
2021/11/09 22:07:50;;;;;;;16.95;4.75;;;;;;;;;;4979928;28;20233;-74
2021/11/09 22:10:17;;;;;;;14.75;4.90;;;;;;;;;;4973631;28;20194;-74
2021/11/09 22:12:43;;;;;;;12.77;4.55;;;;;;;;;;4999479;28;20636;-74
2021/11/09 22:15:14;;;;;;;12.43;5.20;;;;;;;;;;5009546;28;20185;-73
2021/11/09 22:17:40;;;;;;;19.13;4.80;;;;;;;;;;5014812;28;20193;-74
2021/11/09 22:20:08;;;;;;;8.13;4.35;;;2.40;1.00;;;;;;5014711;28;20168;-74
2021/11/09 22:22:38;;;;;;;10.43;4.30;;;;;;;;;;5015120;28;20177;-74
2021/11/09 22:25:05;;;;;;;8.30;4.00;;;;;;;;;;5008095;28;20188;-74
2021/11/09 22:27:31;;;;;;;8.88;3.78;;;;;;;;;;5014852;28;20181;-74
2021/11/09 22:29:57;;;;;;;9.07;4.20;;;;;;;;;;5014243;28;20191;-74
2021/11/09 22:32:23;;;;;;;10.07;4.03;;;;;;;;;;5014513;28;20535;-74
2021/11/09 22:34:50;;;;;;;13.80;4.25;;;;;;;;;;5013865;28;20173;-74
2021/11/09 22:37:16;;;;;;;11.77;5.38;;;;;;;;;;5014093;28;20197;-74
2021/11/09 22:39:46;;;;;;;10.32;4.22;;;;;;;;;;5013876;28;20252;-74
2021/11/09 22:42:12;;;;;;;10.38;3.90;;;;;;;;;;5014523;28;20628;-74
2021/11/09 22:44:38;;;;;;;27.10;4.90;;;;;;;;;;5013543;28;20559;-74
2021/11/09 22:47:04;;;;;;;9.65;4.25;;;;;;;;;;5014208;28;20647;-74
2021/11/09 22:49:31;;;;;;;10.93;4.60;;;;;;;;;;5013986;28;20220;-74
2021/11/09 22:51:57;;;;;;;14.10;5.05;;;;;;;;;;5014305;28;20659;-74
2021/11/09 22:54:28;;;;;;;18.63;4.93;;;;;;;;;;5015560;28;20176;-73
2021/11/09 22:56:54;;;;;;;9.48;4.03;;;;;;;;;;5018485;28;20207;-74
2021/11/09 22:59:20;;;;;;;21.95;5.30;;;;;;;;;;5009753;28;20204;-74
2021/11/09 23:01:46;;;;;;;9.05;4.65;;;;;;;;;;5014209;28;20274;-74
2021/11/09 23:04:12;;;;;;;10.15;4.07;;;;;;;;;;5014139;28;20169;-74
2021/11/09 23:06:38;;;;;;;10.20;3.80;;;;;;;;;;5013869;28;20201;-74
2021/11/09 23:09:05;;;;;;;43.78;7.13;;;;;;;;;;5012945;28;20181;-74
2021/11/09 23:11:31;;;;;;;28.30;4.65;;;;;;;;;;5012683;28;20177;-74
2021/11/09 23:13:57;;;;;;;10.82;4.40;;;;;;;;;;5013812;28;20239;-74
2021/11/09 23:16:23;;;;;;;14.50;4.82;;;;;;;;;;5013786;28;20184;-74
2021/11/09 23:18:49;;;;;;;5.53;3.40;;;;;;;;;;5013856;28;20197;-74
2021/11/09 23:21:16;;;;;;;6.22;3.85;;;;;;;;;;5013691;28;20569;-74
2021/11/09 23:23:42;;;;;;;13.52;4.15;;;;;;;;;;5013795;28;20505;-74
2021/11/09 23:26:09;;;;;;;10.23;4.25;;;;;;;;;;5013652;28;20177;-75
2021/11/09 23:28:35;;;;;;;11.57;4.72;;;;;;;;;;5013829;28;20177;-74
2021/11/09 23:31:01;;;;;;;8.85;4.30;;;;;;;;;;5013407;28;20235;-74
2021/11/09 23:33:28;;;;;;;17.15;5.32;;;;;;;;;;5013403;28;20521;-75
2021/11/09 23:35:54;;;;;;;9.85;4.35;;;;;;;;;;5013402;28;20212;-75
2021/11/09 23:38:22;;;;;;;14.43;4.00;;;;;;;;;;5013696;28;20723;-74
2021/11/09 23:40:48;;;;;;;6.85;3.72;;;;;;;;;;5013427;28;20259;-74
2021/11/09 23:43:14;;;;;;;15.30;4.65;;;;;;;;;;5013324;28;20180;-74
2021/11/09 23:45:40;;;;;;;10.35;4.20;;;;;;;;;;5013755;28;20260;-74
2021/11/09 23:48:10;;;;;;;8.13;4.50;;;;;;;;;;5012083;28;20185;-74
2021/11/09 23:50:40;;;;;;;26.17;4.65;;;;;;;;;;5016844;28;20538;-74
2021/11/09 23:53:06;;;;;;;8.90;4.63;;;;;;;;;;5017296;28;20177;-74
2021/11/09 23:55:32;;;;;;;12.55;4.38;;;;;;;;;;5027591;28;20674;-74
2021/11/09 23:58:04;;;;;;;11.23;4.45;;;;;;;;;;5017201;28;20208;-74
